SWR34C LSZH-LIRF
Flight info
| Callsign | SWR34C |
|---|---|
| Flight time | 1h 7m |
| Altitude | 35000 |
| Route | DEGES Y170 ARGAX DCT RESIA DCT BENUS DCT BAGNO DCT GAVRA DCT RITEB |
| Aircraft | A321/M-SDE3FGHIRWY/LB1 |
Departure
| Time | 2026-05-07 15:54 |
|---|---|
| Airport | Zürich Airport (LSZH) |
Arrival
| Time | 2026-05-07 17:01 |
|---|---|
| Airport | Rome–Fiumicino Leonardo da Vinci International Airport (LIRF) |
| Time | Latitude | Longitude | Altitude | Speed | Heading |
|---|---|---|---|---|---|
| 2026-05-07 15:11 | 47.45420 | 8.55873 | 1407 ft | 0 kts | 186° |
| 2026-05-07 15:45 | 47.45421 | 8.55873 | 1407 ft | 2 kts | 186° |
| 2026-05-07 15:45 | 47.45446 | 8.55877 | 1409 ft | 4 kts | 185° |
| 2026-05-07 15:46 | 47.45495 | 8.55859 | 1414 ft | 4 kts | 126° |
| 2026-05-07 15:46 | 47.45502 | 8.55839 | 1414 ft | 2 kts | 97° |
| 2026-05-07 15:46 | 47.45503 | 8.55830 | 1414 ft | 0 kts | 96° |
| 2026-05-07 15:49 | 47.45503 | 8.55831 | 1414 ft | 0 kts | 96° |
| 2026-05-07 15:49 | 47.45502 | 8.55849 | 1415 ft | 4 kts | 96° |
| 2026-05-07 15:49 | 47.45498 | 8.55893 | 1412 ft | 4 kts | 96° |
| 2026-05-07 15:50 | 47.45495 | 8.55944 | 1407 ft | 8 kts | 96° |
| 2026-05-07 15:50 | 47.45489 | 8.56028 | 1414 ft | 8 kts | 96° |
| 2026-05-07 15:50 | 47.45483 | 8.56108 | 1407 ft | 9 kts | 96° |
| 2026-05-07 15:50 | 47.45479 | 8.56202 | 1408 ft | 8 kts | 79° |
| 2026-05-07 15:51 | 47.45507 | 8.56266 | 1413 ft | 9 kts | 51° |
| 2026-05-07 15:51 | 47.45548 | 8.56341 | 1413 ft | 8 kts | 51° |
| 2026-05-07 15:51 | 47.45586 | 8.56412 | 1415 ft | 10 kts | 57° |
| 2026-05-07 15:51 | 47.45591 | 8.56524 | 1418 ft | 11 kts | 95° |
| 2026-05-07 15:52 | 47.45583 | 8.56636 | 1419 ft | 12 kts | 96° |
| 2026-05-07 15:52 | 47.45575 | 8.56747 | 1423 ft | 10 kts | 96° |
| 2026-05-07 15:52 | 47.45568 | 8.56852 | 1420 ft | 12 kts | 96° |
| 2026-05-07 15:52 | 47.45567 | 8.56974 | 1421 ft | 11 kts | 70° |
| 2026-05-07 15:53 | 47.45613 | 8.57020 | 1424 ft | 7 kts | 11° |
| 2026-05-07 15:53 | 47.45662 | 8.57000 | 1425 ft | 7 kts | 295° |
| 2026-05-07 15:53 | 47.45665 | 8.56971 | 1424 ft | 0 kts | 275° |
| 2026-05-07 15:53 | 47.45665 | 8.56969 | 1424 ft | 1 kts | 275° |
| 2026-05-07 15:54 | 47.45679 | 8.56777 | 1420 ft | 53 kts | 276° |
| 2026-05-07 15:54 | 47.45743 | 8.55879 | 1415 ft | 120 kts | 276° |
| 2026-05-07 15:54 | 47.45849 | 8.54388 | 1460 ft | 162 kts | 276° |
| 2026-05-07 15:54 | 47.45959 | 8.52787 | 2223 ft | 155 kts | 278° |
| 2026-05-07 15:55 | 47.46072 | 8.51196 | 2876 ft | 159 kts | 277° |
| 2026-05-07 15:55 | 47.46197 | 8.49474 | 3154 ft | 179 kts | 277° |
| 2026-05-07 15:55 | 47.46131 | 8.47543 | 3313 ft | 202 kts | 250° |
| 2026-05-07 15:55 | 47.45234 | 8.45833 | 3590 ft | 218 kts | 224° |
| 2026-05-07 15:56 | 47.44162 | 8.44232 | 4102 ft | 220 kts | 235° |
| 2026-05-07 15:56 | 47.43514 | 8.42206 | 4704 ft | 220 kts | 252° |
| 2026-05-07 15:56 | 47.43058 | 8.40041 | 5301 ft | 221 kts | 254° |
| 2026-05-07 15:56 | 47.42499 | 8.37924 | 5938 ft | 224 kts | 235° |
| 2026-05-07 15:57 | 47.41295 | 8.36444 | 6485 ft | 230 kts | 206° |
| 2026-05-07 15:57 | 47.39733 | 8.35960 | 7070 ft | 234 kts | 178° |
| 2026-05-07 15:57 | 47.38190 | 8.36714 | 7657 ft | 239 kts | 147° |
| 2026-05-07 15:57 | 47.37106 | 8.38572 | 8242 ft | 245 kts | 115° |
| 2026-05-07 15:58 | 47.36821 | 8.41053 | 8921 ft | 251 kts | 88° |
| 2026-05-07 15:58 | 47.36961 | 8.43721 | 9223 ft | 274 kts | 85° |
| 2026-05-07 15:58 | 47.37139 | 8.46633 | 9634 ft | 295 kts | 86° |
| 2026-05-07 15:58 | 47.37331 | 8.49703 | 10253 ft | 306 kts | 85° |
| 2026-05-07 15:59 | 47.37526 | 8.52872 | 10924 ft | 309 kts | 85° |
| 2026-05-07 15:59 | 47.37719 | 8.56038 | 11740 ft | 310 kts | 86° |
| 2026-05-07 15:59 | 47.37909 | 8.59221 | 12515 ft | 313 kts | 86° |
| 2026-05-07 15:59 | 47.37806 | 8.62491 | 12778 ft | 329 kts | 106° |
| 2026-05-07 16:00 | 47.36821 | 8.65594 | 12913 ft | 344 kts | 127° |
| 2026-05-07 16:00 | 47.35383 | 8.68514 | 13199 ft | 358 kts | 128° |
| 2026-05-07 16:00 | 47.33901 | 8.71499 | 13769 ft | 363 kts | 128° |
| 2026-05-07 16:00 | 47.32399 | 8.74527 | 14330 ft | 367 kts | 128° |
| 2026-05-07 16:01 | 47.30888 | 8.77586 | 14903 ft | 371 kts | 128° |
| 2026-05-07 16:01 | 47.29367 | 8.80673 | 15468 ft | 374 kts | 128° |
| 2026-05-07 16:01 | 47.27834 | 8.83788 | 16023 ft | 377 kts | 128° |
| 2026-05-07 16:01 | 47.26287 | 8.86929 | 16577 ft | 380 kts | 127° |
| 2026-05-07 16:02 | 47.24727 | 8.90100 | 17114 ft | 384 kts | 127° |
| 2026-05-07 16:02 | 47.23156 | 8.93286 | 17687 ft | 386 kts | 127° |
| 2026-05-07 16:02 | 47.21571 | 8.96495 | 18259 ft | 389 kts | 127° |
| 2026-05-07 16:02 | 47.19971 | 8.99730 | 18726 ft | 392 kts | 127° |
| 2026-05-07 16:03 | 47.18354 | 9.02991 | 19170 ft | 395 kts | 127° |
| 2026-05-07 16:03 | 47.16729 | 9.06267 | 19602 ft | 398 kts | 127° |
| 2026-05-07 16:03 | 47.15093 | 9.09564 | 20036 ft | 400 kts | 127° |
| 2026-05-07 16:03 | 47.13443 | 9.12882 | 20431 ft | 403 kts | 127° |
| 2026-05-07 16:04 | 47.11803 | 9.16175 | 20826 ft | 406 kts | 128° |
| 2026-05-07 16:04 | 47.10129 | 9.19536 | 21225 ft | 409 kts | 128° |
| 2026-05-07 16:04 | 47.08447 | 9.22910 | 21636 ft | 411 kts | 128° |
| 2026-05-07 16:04 | 47.06725 | 9.26354 | 22025 ft | 414 kts | 128° |
| 2026-05-07 16:05 | 47.04975 | 9.29649 | 22404 ft | 415 kts | 134° |
| 2026-05-07 16:05 | 47.02894 | 9.32595 | 22790 ft | 416 kts | 140° |
| 2026-05-07 16:05 | 47.00728 | 9.35436 | 23186 ft | 418 kts | 140° |
| 2026-05-07 16:05 | 46.98552 | 9.38299 | 23602 ft | 421 kts | 140° |
| 2026-05-07 16:06 | 46.96373 | 9.41176 | 23953 ft | 423 kts | 140° |
| 2026-05-07 16:06 | 46.94182 | 9.44069 | 24266 ft | 426 kts | 140° |
| 2026-05-07 16:06 | 46.91973 | 9.46981 | 24595 ft | 429 kts | 140° |
| 2026-05-07 16:06 | 46.89746 | 9.49908 | 24922 ft | 432 kts | 140° |
| 2026-05-07 16:07 | 46.87501 | 9.52850 | 25262 ft | 435 kts | 140° |
| 2026-05-07 16:07 | 46.85236 | 9.55813 | 25626 ft | 437 kts | 140° |
| 2026-05-07 16:07 | 46.82964 | 9.58783 | 25953 ft | 440 kts | 140° |
| 2026-05-07 16:07 | 46.80678 | 9.61767 | 26275 ft | 443 kts | 140° |
| 2026-05-07 16:08 | 46.78380 | 9.64773 | 26629 ft | 445 kts | 140° |
| 2026-05-07 16:08 | 46.76070 | 9.67798 | 26907 ft | 448 kts | 141° |
| 2026-05-07 16:08 | 46.73742 | 9.70840 | 27174 ft | 451 kts | 141° |
| 2026-05-07 16:08 | 46.71393 | 9.73898 | 27469 ft | 454 kts | 141° |
| 2026-05-07 16:09 | 46.69022 | 9.76972 | 27786 ft | 457 kts | 141° |
| 2026-05-07 16:09 | 46.66638 | 9.80056 | 28124 ft | 460 kts | 141° |
| 2026-05-07 16:09 | 46.64241 | 9.83155 | 28440 ft | 462 kts | 141° |
| 2026-05-07 16:09 | 46.61831 | 9.86270 | 28763 ft | 465 kts | 141° |
| 2026-05-07 16:10 | 46.59413 | 9.89401 | 29056 ft | 467 kts | 141° |
| 2026-05-07 16:10 | 46.56980 | 9.92547 | 29354 ft | 469 kts | 141° |
| 2026-05-07 16:10 | 46.54536 | 9.95703 | 29654 ft | 471 kts | 141° |
| 2026-05-07 16:10 | 46.52070 | 9.98881 | 29833 ft | 474 kts | 142° |
| 2026-05-07 16:11 | 46.49588 | 10.02063 | 29979 ft | 477 kts | 144° |
| 2026-05-07 16:11 | 46.46920 | 10.04913 | 30125 ft | 475 kts | 153° |
| 2026-05-07 16:11 | 46.44033 | 10.07215 | 30301 ft | 474 kts | 158° |
| 2026-05-07 16:11 | 46.41104 | 10.09434 | 30463 ft | 475 kts | 158° |
| 2026-05-07 16:12 | 46.38172 | 10.11667 | 30659 ft | 476 kts | 157° |
| 2026-05-07 16:12 | 46.35246 | 10.13897 | 30948 ft | 474 kts | 157° |
| 2026-05-07 16:12 | 46.32360 | 10.16090 | 31200 ft | 474 kts | 158° |
| 2026-05-07 16:12 | 46.29446 | 10.18299 | 31487 ft | 473 kts | 158° |
| 2026-05-07 16:13 | 46.26535 | 10.20502 | 31754 ft | 472 kts | 158° |
| 2026-05-07 16:13 | 46.23625 | 10.22700 | 32008 ft | 471 kts | 158° |
| 2026-05-07 16:13 | 46.20719 | 10.24891 | 32256 ft | 471 kts | 158° |
| 2026-05-07 16:13 | 46.17810 | 10.27081 | 32555 ft | 471 kts | 158° |
| 2026-05-07 16:14 | 46.14908 | 10.29267 | 32827 ft | 471 kts | 158° |
| 2026-05-07 16:14 | 46.12006 | 10.31453 | 33037 ft | 470 kts | 158° |
| 2026-05-07 16:14 | 46.09107 | 10.33634 | 33265 ft | 470 kts | 159° |
| 2026-05-07 16:14 | 46.06210 | 10.35806 | 33557 ft | 468 kts | 158° |
| 2026-05-07 16:15 | 46.03318 | 10.37972 | 33903 ft | 468 kts | 159° |
| 2026-05-07 16:15 | 46.00430 | 10.40132 | 34150 ft | 467 kts | 159° |
| 2026-05-07 16:15 | 45.97541 | 10.42287 | 34393 ft | 467 kts | 159° |
| 2026-05-07 16:15 | 45.94663 | 10.44429 | 34610 ft | 466 kts | 159° |
| 2026-05-07 16:16 | 45.91783 | 10.46568 | 34809 ft | 465 kts | 159° |
| 2026-05-07 16:16 | 45.88899 | 10.48706 | 34974 ft | 465 kts | 159° |
| 2026-05-07 16:16 | 45.86038 | 10.50829 | 34992 ft | 460 kts | 159° |
| 2026-05-07 16:17 | 45.80369 | 10.55047 | 34992 ft | 458 kts | 159° |
| 2026-05-07 16:17 | 45.74724 | 10.59245 | 34988 ft | 457 kts | 159° |
| 2026-05-07 16:18 | 45.69068 | 10.63421 | 34974 ft | 457 kts | 159° |
| 2026-05-07 16:18 | 45.63422 | 10.67574 | 34975 ft | 456 kts | 160° |
| 2026-05-07 16:19 | 45.57779 | 10.71727 | 34969 ft | 456 kts | 160° |
| 2026-05-07 16:19 | 45.52172 | 10.75845 | 34977 ft | 456 kts | 160° |
| 2026-05-07 16:20 | 45.46526 | 10.79982 | 34984 ft | 456 kts | 160° |
| 2026-05-07 16:20 | 45.40886 | 10.84101 | 34977 ft | 455 kts | 160° |
| 2026-05-07 16:21 | 45.35250 | 10.88208 | 34986 ft | 455 kts | 160° |
| 2026-05-07 16:21 | 45.29624 | 10.92302 | 34980 ft | 454 kts | 160° |
| 2026-05-07 16:22 | 45.24001 | 10.96380 | 34967 ft | 454 kts | 160° |
| 2026-05-07 16:22 | 45.18375 | 11.00449 | 34990 ft | 453 kts | 160° |
| 2026-05-07 16:23 | 45.12765 | 11.04494 | 34994 ft | 452 kts | 160° |
| 2026-05-07 16:23 | 45.07164 | 11.08534 | 34995 ft | 451 kts | 160° |
| 2026-05-07 16:24 | 45.01568 | 11.12565 | 34984 ft | 451 kts | 160° |
| 2026-05-07 16:24 | 44.95983 | 11.16580 | 35025 ft | 450 kts | 160° |
| 2026-05-07 16:25 | 44.90400 | 11.20558 | 35039 ft | 449 kts | 161° |
| 2026-05-07 16:25 | 44.85699 | 11.23585 | 35040 ft | 445 kts | 164° |
| 2026-05-07 16:26 | 44.79048 | 11.27431 | 35012 ft | 444 kts | 165° |
| 2026-05-07 16:26 | 44.74260 | 11.30189 | 35009 ft | 444 kts | 165° |
| 2026-05-07 16:27 | 44.68564 | 11.33563 | 34999 ft | 444 kts | 164° |
| 2026-05-07 16:27 | 44.62878 | 11.36961 | 34989 ft | 444 kts | 164° |
| 2026-05-07 16:28 | 44.57228 | 11.40327 | 34966 ft | 443 kts | 164° |
| 2026-05-07 16:28 | 44.51545 | 11.43696 | 34976 ft | 443 kts | 165° |
| 2026-05-07 16:29 | 44.45863 | 11.47049 | 34990 ft | 442 kts | 165° |
| 2026-05-07 16:29 | 44.40183 | 11.50391 | 34974 ft | 442 kts | 165° |
| 2026-05-07 16:30 | 44.34508 | 11.53729 | 34993 ft | 443 kts | 165° |
| 2026-05-07 16:30 | 44.28832 | 11.57066 | 35024 ft | 442 kts | 165° |
| 2026-05-07 16:31 | 44.23154 | 11.60399 | 35019 ft | 442 kts | 165° |
| 2026-05-07 16:31 | 44.17484 | 11.63709 | 35010 ft | 441 kts | 165° |
| 2026-05-07 16:32 | 44.11813 | 11.67014 | 35009 ft | 442 kts | 165° |
| 2026-05-07 16:32 | 44.06145 | 11.70306 | 34985 ft | 441 kts | 165° |
| 2026-05-07 16:33 | 44.00475 | 11.73596 | 34950 ft | 441 kts | 165° |
| 2026-05-07 16:33 | 43.94800 | 11.76890 | 34972 ft | 442 kts | 165° |
| 2026-05-07 16:34 | 43.89089 | 11.79986 | 34979 ft | 434 kts | 173° |
| 2026-05-07 16:34 | 43.83229 | 11.81376 | 34978 ft | 426 kts | 180° |
| 2026-05-07 16:35 | 43.77406 | 11.82518 | 34953 ft | 426 kts | 179° |
| 2026-05-07 16:35 | 43.71520 | 11.84173 | 34972 ft | 431 kts | 175° |
| 2026-05-07 16:36 | 43.65686 | 11.86187 | 34857 ft | 433 kts | 174° |
| 2026-05-07 16:36 | 43.62759 | 11.87197 | 34618 ft | 433 kts | 174° |
| 2026-05-07 16:36 | 43.59832 | 11.88174 | 34362 ft | 433 kts | 175° |
| 2026-05-07 16:36 | 43.56902 | 11.89124 | 33975 ft | 432 kts | 175° |
| 2026-05-07 16:37 | 43.53969 | 11.90051 | 33180 ft | 432 kts | 175° |
| 2026-05-07 16:37 | 43.51028 | 11.90966 | 32370 ft | 434 kts | 175° |
| 2026-05-07 16:37 | 43.48086 | 11.91884 | 31726 ft | 433 kts | 175° |
| 2026-05-07 16:37 | 43.45191 | 11.92794 | 31220 ft | 432 kts | 175° |
| 2026-05-07 16:38 | 43.42264 | 11.93718 | 30833 ft | 431 kts | 175° |
| 2026-05-07 16:38 | 43.39343 | 11.94642 | 30444 ft | 430 kts | 175° |
| 2026-05-07 16:38 | 43.36387 | 11.95582 | 30092 ft | 429 kts | 175° |
| 2026-05-07 16:38 | 43.33504 | 11.96503 | 29603 ft | 423 kts | 175° |
| 2026-05-07 16:39 | 43.30692 | 11.97400 | 29075 ft | 417 kts | 175° |
| 2026-05-07 16:39 | 43.27882 | 11.98290 | 28547 ft | 412 kts | 175° |
| 2026-05-07 16:39 | 43.25103 | 11.99166 | 28033 ft | 407 kts | 175° |
| 2026-05-07 16:39 | 43.22363 | 12.00028 | 27525 ft | 401 kts | 175° |
| 2026-05-07 16:40 | 43.19660 | 12.00876 | 27007 ft | 395 kts | 175° |
| 2026-05-07 16:40 | 43.16967 | 12.01720 | 26543 ft | 389 kts | 174° |
| 2026-05-07 16:40 | 43.14351 | 12.02541 | 26072 ft | 383 kts | 174° |
| 2026-05-07 16:40 | 43.11775 | 12.03350 | 25614 ft | 377 kts | 174° |
| 2026-05-07 16:41 | 43.09237 | 12.04144 | 25172 ft | 372 kts | 174° |
| 2026-05-07 16:41 | 43.06761 | 12.04915 | 24740 ft | 368 kts | 174° |
| 2026-05-07 16:41 | 43.04239 | 12.05696 | 24306 ft | 366 kts | 174° |
| 2026-05-07 16:41 | 43.01792 | 12.06452 | 23881 ft | 363 kts | 173° |
| 2026-05-07 16:42 | 42.99334 | 12.07216 | 23450 ft | 360 kts | 173° |
| 2026-05-07 16:42 | 42.96890 | 12.07976 | 22997 ft | 358 kts | 173° |
| 2026-05-07 16:42 | 42.94462 | 12.08731 | 22587 ft | 357 kts | 173° |
| 2026-05-07 16:42 | 42.92050 | 12.09479 | 22173 ft | 354 kts | 173° |
| 2026-05-07 16:43 | 42.89652 | 12.10222 | 21758 ft | 352 kts | 173° |
| 2026-05-07 16:43 | 42.87272 | 12.10959 | 21348 ft | 350 kts | 172° |
| 2026-05-07 16:43 | 42.84906 | 12.11692 | 20863 ft | 348 kts | 172° |
| 2026-05-07 16:43 | 42.82546 | 12.12429 | 20437 ft | 345 kts | 172° |
| 2026-05-07 16:44 | 42.80240 | 12.13154 | 20073 ft | 337 kts | 172° |
| 2026-05-07 16:44 | 42.77972 | 12.13863 | 19682 ft | 333 kts | 172° |
| 2026-05-07 16:44 | 42.75722 | 12.14558 | 19280 ft | 330 kts | 172° |
| 2026-05-07 16:44 | 42.73497 | 12.15244 | 18865 ft | 327 kts | 172° |
| 2026-05-07 16:45 | 42.71285 | 12.15930 | 18457 ft | 325 kts | 170° |
| 2026-05-07 16:45 | 42.69149 | 12.16976 | 18007 ft | 328 kts | 157° |
| 2026-05-07 16:45 | 42.67168 | 12.18525 | 17530 ft | 327 kts | 153° |
| 2026-05-07 16:45 | 42.65219 | 12.20097 | 17060 ft | 325 kts | 153° |
| 2026-05-07 16:46 | 42.63279 | 12.21651 | 16618 ft | 323 kts | 153° |
| 2026-05-07 16:46 | 42.61348 | 12.23191 | 16179 ft | 320 kts | 154° |
| 2026-05-07 16:46 | 42.59435 | 12.24716 | 15757 ft | 318 kts | 154° |
| 2026-05-07 16:46 | 42.57533 | 12.26230 | 15341 ft | 316 kts | 153° |
| 2026-05-07 16:47 | 42.55643 | 12.27738 | 14930 ft | 314 kts | 153° |
| 2026-05-07 16:47 | 42.53769 | 12.29233 | 14539 ft | 312 kts | 153° |
| 2026-05-07 16:47 | 42.51906 | 12.30716 | 14149 ft | 309 kts | 153° |
| 2026-05-07 16:47 | 42.50056 | 12.32186 | 13765 ft | 307 kts | 153° |
| 2026-05-07 16:48 | 42.48217 | 12.33649 | 13328 ft | 305 kts | 153° |
| 2026-05-07 16:48 | 42.46400 | 12.35097 | 12792 ft | 301 kts | 153° |
| 2026-05-07 16:48 | 42.44601 | 12.36532 | 12163 ft | 299 kts | 152° |
| 2026-05-07 16:48 | 42.42817 | 12.37953 | 11553 ft | 296 kts | 152° |
| 2026-05-07 16:49 | 42.41051 | 12.39356 | 10967 ft | 293 kts | 152° |
| 2026-05-07 16:49 | 42.39299 | 12.40744 | 10408 ft | 292 kts | 152° |
| 2026-05-07 16:49 | 42.37558 | 12.42126 | 10042 ft | 288 kts | 152° |
| 2026-05-07 16:49 | 42.35832 | 12.43359 | 9952 ft | 272 kts | 161° |
| 2026-05-07 16:50 | 42.34072 | 12.44141 | 9710 ft | 263 kts | 164° |
| 2026-05-07 16:50 | 42.32331 | 12.44872 | 9322 ft | 261 kts | 164° |
| 2026-05-07 16:50 | 42.30602 | 12.45595 | 8926 ft | 260 kts | 164° |
| 2026-05-07 16:50 | 42.28881 | 12.46317 | 8515 ft | 258 kts | 163° |
| 2026-05-07 16:51 | 42.27194 | 12.47026 | 8306 ft | 250 kts | 163° |
| 2026-05-07 16:51 | 42.25548 | 12.47720 | 7994 ft | 246 kts | 163° |
| 2026-05-07 16:51 | 42.23880 | 12.48087 | 7644 ft | 243 kts | 187° |
| 2026-05-07 16:51 | 42.22311 | 12.47367 | 7278 ft | 240 kts | 215° |
| 2026-05-07 16:52 | 42.21209 | 12.45716 | 6899 ft | 240 kts | 244° |
| 2026-05-07 16:52 | 42.20660 | 12.43594 | 6517 ft | 241 kts | 253° |
| 2026-05-07 16:52 | 42.20168 | 12.41431 | 6140 ft | 242 kts | 253° |
| 2026-05-07 16:52 | 42.19679 | 12.39265 | 5782 ft | 241 kts | 253° |
| 2026-05-07 16:53 | 42.19197 | 12.37099 | 5427 ft | 241 kts | 253° |
| 2026-05-07 16:53 | 42.18714 | 12.34935 | 5085 ft | 241 kts | 253° |
| 2026-05-07 16:53 | 42.18227 | 12.32772 | 4762 ft | 240 kts | 253° |
| 2026-05-07 16:53 | 42.17735 | 12.30612 | 4407 ft | 241 kts | 253° |
| 2026-05-07 16:54 | 42.17241 | 12.28461 | 4089 ft | 239 kts | 253° |
| 2026-05-07 16:54 | 42.16750 | 12.26361 | 4006 ft | 232 kts | 253° |
| 2026-05-07 16:54 | 42.16130 | 12.24371 | 4020 ft | 230 kts | 242° |
| 2026-05-07 16:54 | 42.15326 | 12.22515 | 4021 ft | 229 kts | 239° |
| 2026-05-07 16:55 | 42.14497 | 12.20680 | 4024 ft | 229 kts | 238° |
| 2026-05-07 16:55 | 42.13445 | 12.19103 | 4019 ft | 228 kts | 211° |
| 2026-05-07 16:55 | 42.11976 | 12.18312 | 4129 ft | 229 kts | 196° |
| 2026-05-07 16:55 | 42.10442 | 12.17743 | 4133 ft | 229 kts | 194° |
| 2026-05-07 16:56 | 42.08896 | 12.17198 | 4141 ft | 230 kts | 194° |
| 2026-05-07 16:56 | 42.07329 | 12.16805 | 4147 ft | 230 kts | 179° |
| 2026-05-07 16:56 | 42.04276 | 12.17866 | 4073 ft | 221 kts | 161° |
| 2026-05-07 16:57 | 42.02830 | 12.18483 | 3840 ft | 216 kts | 161° |
| 2026-05-07 16:57 | 42.01408 | 12.19084 | 3417 ft | 212 kts | 161° |
| 2026-05-07 16:57 | 42.00009 | 12.19674 | 3142 ft | 209 kts | 161° |
| 2026-05-07 16:57 | 41.98628 | 12.20255 | 2864 ft | 207 kts | 162° |
| 2026-05-07 16:58 | 41.97268 | 12.20828 | 2591 ft | 203 kts | 163° |
| 2026-05-07 16:58 | 41.95929 | 12.21391 | 2333 ft | 200 kts | 161° |
| 2026-05-07 16:58 | 41.94621 | 12.21941 | 2061 ft | 194 kts | 162° |
| 2026-05-07 16:58 | 41.93367 | 12.22468 | 1827 ft | 182 kts | 163° |
| 2026-05-07 16:59 | 41.92193 | 12.22961 | 1586 ft | 171 kts | 163° |
| 2026-05-07 16:59 | 41.91088 | 12.23426 | 1348 ft | 163 kts | 164° |
| 2026-05-07 16:59 | 41.90039 | 12.23867 | 1138 ft | 153 kts | 165° |
| 2026-05-07 16:59 | 41.89036 | 12.24287 | 928 ft | 150 kts | 165° |
| 2026-05-07 17:00 | 41.88043 | 12.24702 | 744 ft | 151 kts | 166° |
| 2026-05-07 17:00 | 41.87050 | 12.25124 | 575 ft | 148 kts | 167° |
| 2026-05-07 17:00 | 41.86075 | 12.25533 | 363 ft | 145 kts | 166° |
| 2026-05-07 17:00 | 41.85103 | 12.25938 | 183 ft | 147 kts | 166° |
| 2026-05-07 17:01 | 41.84129 | 12.26347 | 29 ft | 143 kts | 166° |
| 2026-05-07 17:01 | 41.83267 | 12.26705 | 11 ft | 108 kts | 163° |
| 2026-05-07 17:01 | 41.82721 | 12.26934 | 14 ft | 63 kts | 162° |
| 2026-05-07 17:01 | 41.82333 | 12.27098 | 9 ft | 47 kts | 162° |
| 2026-05-07 17:02 | 41.82092 | 12.27141 | 11 ft | 30 kts | 185° |
| 2026-05-07 17:02 | 41.81898 | 12.27090 | 11 ft | 28 kts | 192° |
| 2026-05-07 17:02 | 41.81733 | 12.27047 | 12 ft | 21 kts | 184° |
| 2026-05-07 17:02 | 41.81591 | 12.27086 | 12 ft | 21 kts | 163° |
| 2026-05-07 17:03 | 41.81501 | 12.27123 | 12 ft | 20 kts | 162° |
| 2026-05-07 17:03 | 41.81369 | 12.27178 | 12 ft | 20 kts | 162° |
| 2026-05-07 17:03 | 41.81218 | 12.27242 | 12 ft | 25 kts | 163° |
| 2026-05-07 17:03 | 41.81057 | 12.27309 | 13 ft | 24 kts | 162° |
| 2026-05-07 17:04 | 41.80926 | 12.27351 | 13 ft | 18 kts | 179° |
| 2026-05-07 17:04 | 41.80803 | 12.27327 | 13 ft | 18 kts | 189° |
| 2026-05-07 17:04 | 41.80688 | 12.27281 | 13 ft | 17 kts | 216° |
| 2026-05-07 17:04 | 41.80630 | 12.27132 | 15 ft | 21 kts | 249° |
| 2026-05-07 17:05 | 41.80580 | 12.26950 | 14 ft | 21 kts | 250° |
| 2026-05-07 17:05 | 41.80530 | 12.26767 | 14 ft | 21 kts | 250° |
| 2026-05-07 17:05 | 41.80481 | 12.26590 | 15 ft | 20 kts | 250° |
| 2026-05-07 17:05 | 41.80432 | 12.26413 | 15 ft | 20 kts | 250° |
| 2026-05-07 17:06 | 41.80383 | 12.26231 | 15 ft | 21 kts | 250° |
| 2026-05-07 17:06 | 41.80331 | 12.26046 | 14 ft | 22 kts | 249° |
| 2026-05-07 17:06 | 41.80279 | 12.25856 | 14 ft | 22 kts | 250° |
| 2026-05-07 17:06 | 41.80228 | 12.25671 | 15 ft | 17 kts | 250° |
| 2026-05-07 17:07 | 41.80193 | 12.25548 | 14 ft | 12 kts | 250° |
| 2026-05-07 17:07 | 41.80165 | 12.25443 | 14 ft | 12 kts | 250° |
| 2026-05-07 17:07 | 41.80123 | 12.25367 | 14 ft | 10 kts | 205° |
| 2026-05-07 17:07 | 41.80062 | 12.25335 | 14 ft | 9 kts | 200° |
| 2026-05-07 17:08 | 41.80013 | 12.25367 | 14 ft | 8 kts | 121° |
| 2026-05-07 17:08 | 41.79988 | 12.25436 | 14 ft | 8 kts | 115° |
| 2026-05-07 17:08 | 41.79955 | 12.25483 | 14 ft | 7 kts | 169° |
| 2026-05-07 17:08 | 41.79905 | 12.25460 | 14 ft | 8 kts | 205° |
| 2026-05-07 17:09 | 41.79855 | 12.25430 | 14 ft | 8 kts | 199° |
| 2026-05-07 17:09 | 41.79818 | 12.25455 | 14 ft | 6 kts | 125° |
| 2026-05-07 17:09 | 41.79801 | 12.25501 | 14 ft | 4 kts | 115° |
| 2026-05-07 17:09 | 41.79795 | 12.25519 | 15 ft | 1 kts | 115° |
| 2026-05-07 17:10 | 41.79794 | 12.25523 | 15 ft | 0 kts | 115° |